Altair — 9LC2000 — position and weather

sailwx.info

Track history (hours):
 
Tides and Currents Weather Stations Pressure Air Temp Water Temp Dewpoint Dewpoint Depression Visibility Wind Speed Wind Dir Waves Ship Positions

Altair

Last reported at 2015-Apr-28 16:33 UTC. Time now 2015-Apr-28 18:21 UTC.
Position N 42°60' E 036°26'.

Length 108 m; draft 3.7 m.

Type: Cargo ship. MMSI: 667021000.

Date/timePositionNaut miles runAvg speedWind from/ knotsBaromVisibWave heightAir tempDewpointWater temp
2015-Apr-28 16:33N 42°60' E 036°26'8 7.6
2015-Apr-28 15:33N 43°08' E 036°26'8 7.7
2015-Apr-28 14:29N 43°16' E 036°26'7 7.8
2015-Apr-28 13:33N 43°23' E 036°26'8 7.7
2015-Apr-28 12:33N 43°31' E 036°26'9 8.0
2015-Apr-28 11:27N 43°40' E 036°26'34 8.2
2015-Apr-28 07:20N 44°13' E 036°27'6 8.0
2015-Apr-28 06:33N 44°19' E 036°27'24 8.0
2015-Apr-28 03:33N 44°43' E 036°28'8 8.1
2015-Apr-28 02:33N 44°52' E 036°29'8 8.2
2015-Apr-28 01:33N 44°60' E 036°29'  
2015-Apr-18 21:33N 44°40' E 035°25'9 7.6
2015-Apr-18 20:26N 44°37' E 035°14'7 7.6
2015-Apr-18 19:32N 44°34' E 035°06'7 7.7
2015-Apr-18 18:33N 44°31' E 034°56'8 7.7
2015-Apr-18 17:33N 44°28' E 034°46'8 7.8
2015-Apr-18 16:33N 44°24' E 034°37'  
Track history (hours):
 
Tides and Currents Weather Stations Pressure Air Temp Water Temp Dewpoint Dewpoint Depression Visibility Wind Speed Wind Dir Waves Ship Positions

Altair

Last reported at 2015-Apr-28 16:33 UTC. Time now 2015-Apr-28 18:21 UTC.
Position N 42°60' E 036°26'.

Length 108 m; draft 3.7 m.

Type: Cargo ship. MMSI: 667021000.

Date/timePositionNaut miles runAvg speedWind from/ knotsBaromVisibWave heightAir tempDewpointWater temp
2015-Apr-28 16:33N 42°60' E 036°26'8 7.6
2015-Apr-28 15:33N 43°08' E 036°26'8 7.7
2015-Apr-28 14:29N 43°16' E 036°26'7 7.8
2015-Apr-28 13:33N 43°23' E 036°26'8 7.7
2015-Apr-28 12:33N 43°31' E 036°26'9 8.0
2015-Apr-28 11:27N 43°40' E 036°26'34 8.2
2015-Apr-28 07:20N 44°13' E 036°27'6 8.0
2015-Apr-28 06:33N 44°19' E 036°27'24 8.0
2015-Apr-28 03:33N 44°43' E 036°28'8 8.1
2015-Apr-28 02:33N 44°52' E 036°29'8 8.2
2015-Apr-28 01:33N 44°60' E 036°29'  
2015-Apr-18 21:33N 44°40' E 035°25'9 7.6
2015-Apr-18 20:26N 44°37' E 035°14'7 7.6
2015-Apr-18 19:32N 44°34' E 035°06'7 7.7
2015-Apr-18 18:33N 44°31' E 034°56'8 7.7
2015-Apr-18 17:33N 44°28' E 034°46'8 7.8
2015-Apr-18 16:33N 44°24' E 034°37'  

Dump ship's entire track history